Time;durP1;ratioP1;P1;durP2;ratioP2;P2;SDS_P1;SDS_P2;PMS_P1;PMS_P2;Temp;Humidity;BMP_temperature;BMP_pressure;BME280_temperature;BME280_humidity;BME280_pressure;Samples;Min_cycle;Max_cycle;Signal;HPM_P1;HPM_P2
2021/08/04 00:00:03;;;;;;;3.08;2.88;;;;;;;19.03;62.26;100843.41;684538;28;17698;-61
2021/08/04 00:00:33;;;;;;;3.00;2.80;;;;;;;19.02;62.39;100839.00;680190;28;136978;-61
2021/08/04 00:00:54;;;;;;;2.97;2.78;;;;;;;19.02;62.42;100847.22;684119;28;35147;-60
2021/08/04 00:01:15;;;;;;;2.80;2.60;;;;;;;19.02;62.48;100847.22;684076;28;24340;-59
2021/08/04 00:01:40;;;;;;;3.15;2.85;;;;;;;19.01;62.26;100840.06;686392;28;39163;-62
2021/08/04 00:02:02;;;;;;;2.90;2.70;;;;;;;19.02;62.45;100842.56;687367;28;21230;-58
2021/08/04 00:02:24;;;;;;;2.90;2.70;;;;;;;19.02;62.59;100847.22;686035;28;45315;-61
2021/08/04 00:02:45;;;;;;;3.17;2.90;;;;;;;19.01;62.52;100843.66;687284;28;23305;-61
2021/08/04 00:03:07;;;;;;;3.22;2.90;;;;;;;19.02;62.54;100844.47;687744;28;1465;-61
2021/08/04 00:03:28;;;;;;;3.35;3.05;;;;;;;19.00;62.77;100841.97;686172;28;21533;-62
2021/08/04 00:03:50;;;;;;;2.88;2.72;;;;;;;19.00;62.79;100838.41;684766;28;22410;-61
2021/08/04 00:04:11;;;;;;;4.15;3.00;;;;;;;19.00;62.74;100835.66;685321;28;1630;-60
2021/08/04 00:04:36;;;;;;;3.22;2.92;;;;;;;19.00;62.74;100832.94;684023;28;36957;-61
2021/08/04 00:04:58;;;;;;;2.83;2.72;;;;;;;19.00;62.86;100841.13;685263;28;1599;-61
2021/08/04 00:05:24;;;;;;;2.97;2.78;;;;;;;18.99;62.78;100834.81;683168;28;61571;-60
2021/08/04 00:05:46;;;;;;;3.35;3.05;;;;;;;18.97;62.94;100834.22;684711;28;24333;-61
2021/08/04 00:06:08;;;;;;;3.20;3.00;;;;;;;18.98;62.89;100838.63;685288;28;943;-61
2021/08/04 00:06:29;;;;;;;3.05;2.85;;;;;;;18.97;62.98;100836.94;684450;28;22431;-61
2021/08/04 00:06:50;;;;;;;3.08;2.78;;;;;;;18.96;62.81;100837.19;684779;28;22662;-61
2021/08/04 00:07:12;;;;;;;3.10;2.90;;;;;;;18.96;63.01;100835.28;684411;28;20329;-59
2021/08/04 00:07:33;;;;;;;3.00;2.80;;;;;;;18.97;63.07;100834.22;683864;28;44506;-60
2021/08/04 00:07:54;;;;;;;2.90;2.70;;;;;;;18.96;62.98;100835.28;685100;28;13262;-61
2021/08/04 00:08:15;;;;;;;2.92;2.70;;;;;;;18.97;63.11;100833.38;684510;28;21533;-60
2021/08/04 00:08:36;;;;;;;2.92;2.67;;;;;;;18.96;62.99;100834.44;684891;28;15980;-59
2021/08/04 00:08:59;;;;;;;3.80;3.22;;;;;;;18.96;63.07;100843.47;685097;28;11578;-59
2021/08/04 00:09:22;;;;;;;3.88;3.10;;;;;;;18.97;63.11;100841.59;684555;28;14875;-61
2021/08/04 00:09:44;;;;;;;3.35;3.05;;;;;;;18.99;62.92;100836.72;685256;28;949;-62
2021/08/04 00:10:06;;;;;;;3.00;2.80;;;;;;;19.00;62.87;100835.66;684440;28;21528;-61
2021/08/04 00:10:28;;;;;;;3.13;2.88;;;;;;;19.01;62.81;100838.16;684208;28;45908;-61
2021/08/04 00:10:50;;;;;;;3.15;2.85;;;;;;;19.02;62.75;100834.34;684551;28;22923;-62
2021/08/04 00:11:11;;;;;;;5.95;2.78;;;;;;;19.02;62.60;100837.09;683635;28;30766;-61
2021/08/04 00:11:33;;;;;;;3.03;2.72;;;;;;;19.03;62.66;100833.28;684475;28;19718;-61
2021/08/04 00:11:55;;;;;;;3.25;2.95;;;;;;;19.04;62.66;100837.72;684001;28;46436;-58
2021/08/04 00:12:16;;;;;;;2.97;2.78;;;;;;;19.05;62.69;100827.59;684030;28;45286;-61
2021/08/04 00:12:37;;;;;;;3.10;2.88;;;;;;;19.05;62.82;100836.63;684732;28;21560;-61
2021/08/04 00:12:58;;;;;;;3.95;2.83;;;;;;;19.06;62.50;100829.25;684583;28;22414;-60
2021/08/04 00:13:19;;;;;;;4.15;3.20;;;;;;;19.06;62.59;100832.84;685026;28;1824;-61
2021/08/04 00:13:41;;;;;;;3.17;2.97;;;;;;;19.08;62.49;100829.88;684818;28;23681;-61
2021/08/04 00:14:03;;;;;;;2.90;2.70;;;;;;;19.07;62.51;100834.50;683889;28;42452;-60
2021/08/04 00:14:24;;;;;;;2.88;2.67;;;;;;;19.09;62.64;100832.38;684738;28;14793;-60
2021/08/04 00:14:45;;;;;;;3.10;2.90;;;;;;;19.11;62.81;100831.28;683984;28;47209;-59
2021/08/04 00:15:08;;;;;;;3.28;2.92;;;;;;;19.11;62.62;100834.88;685248;28;2047;-60
2021/08/04 00:15:30;;;;;;;3.30;3.00;;;;;;;19.12;62.44;100835.69;682728;28;67334;-59
2021/08/04 00:15:52;;;;;;;3.42;3.13;;;;;;;19.12;62.55;100832.97;683920;28;42211;-62
2021/08/04 00:16:13;;;;;;;3.33;3.00;;;;;;;19.13;62.56;100837.38;683906;28;46260;-62
2021/08/04 00:16:36;;;;;;;3.00;2.78;;;;;;;19.13;62.32;100830.00;685096;28;2093;-62
2021/08/04 00:17:00;;;;;;;3.10;2.90;;;;;;;19.14;62.31;100830.81;684094;28;38713;-61
2021/08/04 00:17:27;;;;;;;3.10;2.80;;;;;;;19.15;62.33;100833.31;684067;28;39008;-61
2021/08/04 00:17:49;;;;;;;2.97;2.78;;;;;;;19.16;62.12;100836.91;684860;28;1038;-62
2021/08/04 00:18:14;;;;;;;3.53;2.90;;;;;;;19.16;62.06;100835.00;683929;28;37007;-62
2021/08/04 00:18:36;;;;;;;3.30;3.00;;;;;;;19.16;62.13;100826.78;685015;28;923;-61
2021/08/04 00:18:58;;;;;;;4.38;3.10;;;;;;;19.17;62.02;100835.84;684394;28;23473;-61
2021/08/04 00:19:19;;;;;;;3.08;2.78;;;;;;;19.16;62.19;100835.00;682880;28;69668;-62
2021/08/04 00:19:41;;;;;;;3.20;2.90;;;;;;;19.17;62.22;100830.34;684923;28;965;-62
2021/08/04 00:20:03;;;;;;;3.40;3.00;;;;;;;19.17;62.03;100833.09;684644;28;13709;-62
2021/08/04 00:20:25;;;;;;;3.42;3.10;;;;;;;19.18;62.06;100837.50;684997;28;970;-62
2021/08/04 00:20:46;;;;;;;3.30;3.10;;;;;;;19.17;61.85;100836.69;683541;28;44403;-62
2021/08/04 00:21:07;;;;;;;3.42;3.13;;;;;;;19.17;61.97;100833.94;684211;28;22486;-62
2021/08/04 00:21:29;;;;;;;2.88;2.67;;;;;;;19.16;62.07;100831.44;684497;28;23449;-62
2021/08/04 00:21:50;;;;;;;2.88;2.78;;;;;;;19.18;61.93;100837.50;683531;28;44462;-62
2021/08/04 00:22:12;;;;;;;2.88;2.75;;;;;;;19.18;61.95;100838.34;684483;28;22408;-60
2021/08/04 00:22:33;;;;;;;3.35;2.80;;;;;;;19.19;61.92;100833.72;683872;28;37962;-61
2021/08/04 00:22:55;;;;;;;3.13;2.90;;;;;;;19.19;61.95;100839.19;684975;28;17257;-61
2021/08/04 00:23:17;;;;;;;3.00;2.80;;;;;;;19.17;61.95;100833.94;683690;28;46530;-62
2021/08/04 00:23:39;;;;;;;3.40;2.95;;;;;;;19.16;61.85;100834.19;683500;28;46209;-62
2021/08/04 00:24:00;;;;;;;3.50;2.95;;;;;;;19.16;61.99;100834.19;684430;28;29648;-62
2021/08/04 00:24:21;;;;;;;3.03;2.83;;;;;;;19.15;62.09;100836.06;684471;28;22794;-60
2021/08/04 00:24:42;;;;;;;3.63;3.00;;;;;;;19.16;61.84;100837.75;684515;28;21084;-62
2021/08/04 00:25:04;;;;;;;3.10;2.90;;;;;;;19.16;61.74;100835.00;684641;28;1716;-61
2021/08/04 00:25:27;;;;;;;2.70;2.60;;;;;;;19.15;61.74;100838.81;685168;28;896;-59
2021/08/04 00:25:53;;;;;;;2.95;2.75;;;;;;;19.17;61.87;100835.84;682762;28;61742;-61
2021/08/04 00:26:14;;;;;;;3.40;2.60;;;;;;;19.15;61.75;100838.81;684273;28;30014;-61
2021/08/04 00:26:35;;;;;;;3.13;2.70;;;;;;;19.17;61.82;100838.56;683526;28;43633;-62
2021/08/04 00:26:56;;;;;;;2.85;2.65;;;;;;;19.16;61.59;100837.75;683048;28;15443;-62
2021/08/04 00:27:18;;;;;;;3.05;2.70;;;;;;;19.15;61.61;100837.97;684669;28;17299;-60
2021/08/04 00:27:39;;;;;;;3.33;2.63;;;;;;;19.14;61.62;100841.78;681176;28;44742;-62
2021/08/04 00:28:00;;;;;;;2.83;2.63;;;;;;;19.11;61.85;100829.41;681304;29;22510;-62
2021/08/04 00:28:21;;;;;;;2.95;2.72;;;;;;;19.08;61.89;100838.06;681475;29;22513;-62
2021/08/04 00:28:43;;;;;;;3.03;2.80;;;;;;;19.11;61.84;100843.09;681846;28;23228;-62
2021/08/04 00:29:04;;;;;;;3.20;2.90;;;;;;;19.09;61.88;100835.09;683739;28;39237;-60
2021/08/04 00:29:26;;;;;;;3.00;2.80;;;;;;;19.08;62.01;100836.16;682123;28;22411;-62
2021/08/04 00:29:47;;;;;;;3.17;2.88;;;;;;;19.08;62.10;100838.06;681840;28;23317;-62
2021/08/04 00:30:10;;;;;;;3.72;2.90;;;;;;;19.09;62.09;100829.63;681547;29;23452;-62
2021/08/04 00:30:35;;;;;;;3.22;3.00;;;;;;;19.09;62.01;100831.53;680020;28;61778;-60
2021/08/04 00:30:56;;;;;;;3.83;2.75;;;;;;;19.12;62.10;100842.00;682270;29;915;-61
2021/08/04 00:31:22;;;;;;;2.90;2.70;;;;;;;19.11;61.86;100832.13;682329;28;38035;-62
2021/08/04 00:31:45;;;;;;;3.13;2.83;;;;;;;19.08;61.89;100833.41;684598;28;1826;-60
2021/08/04 00:32:07;;;;;;;3.30;3.00;;;;;;;19.08;62.02;100832.59;681218;29;27856;-60
2021/08/04 00:32:29;;;;;;;3.30;3.00;;;;;;;19.07;61.93;100837.25;684434;28;1972;-62
2021/08/04 00:32:54;;;;;;;3.00;2.80;;;;;;;19.07;61.97;100829.03;684839;28;1567;-60
2021/08/04 00:33:16;;;;;;;3.50;2.58;;;;;;;19.07;61.78;100833.66;683545;28;38237;-62
2021/08/04 00:33:38;;;;;;;2.60;2.47;;;;;;;19.07;61.90;100836.41;681476;29;23483;-60
2021/08/04 00:34:00;;;;;;;3.03;2.83;;;;;;;19.07;61.91;100829.03;678900;29;69462;-60
2021/08/04 00:34:21;;;;;;;3.03;2.83;;;;;;;19.07;62.04;100823.56;682345;29;1520;-60
2021/08/04 00:34:43;;;;;;;2.85;2.65;;;;;;;19.07;62.04;100829.03;682379;29;976;-61
2021/08/04 00:35:06;;;;;;;2.58;2.42;;;;;;;19.07;62.01;100831.78;679080;29;20473;-62
2021/08/04 00:35:27;;;;;;;3.07;2.87;;;;;;;19.08;61.92;100827.13;677927;29;78296;-61
2021/08/04 00:35:50;;;;;;;3.20;2.90;;;;;;;19.07;62.17;100834.50;678608;29;53713;-62
2021/08/04 00:36:11;;;;;;;2.90;2.70;;;;;;;19.07;62.12;100831.78;681762;29;19385;-62
2021/08/04 00:36:33;;;;;;;2.80;2.60;;;;;;;19.06;62.33;100835.56;681850;29;18445;-62
2021/08/04 00:36:54;;;;;;;3.13;2.92;;;;;;;19.06;62.24;100832.00;680955;29;46374;-62
2021/08/04 00:37:17;;;;;;;3.13;2.92;;;;;;;19.06;62.32;100832.84;680958;29;44401;-62
2021/08/04 00:37:38;;;;;;;3.40;2.60;;;;;;;19.06;62.25;100832.00;678485;29;45232;-62
2021/08/04 00:38:00;;;;;;;2.78;2.60;;;;;;;19.04;62.18;100832.22;679635;29;21518;-62
2021/08/04 00:38:21;;;;;;;2.70;2.60;;;;;;;19.04;62.28;100832.22;680225;28;46382;-62
2021/08/04 00:38:43;;;;;;;2.85;2.65;;;;;;;19.03;62.39;100827.81;681419;28;34369;-62
2021/08/04 00:39:04;;;;;;;2.90;2.70;;;;;;;19.02;62.39;100826.13;680087;29;1044;-62
2021/08/04 00:39:26;;;;;;;3.13;2.92;;;;;;;18.98;62.60;100827.69;679011;29;44739;-62
2021/08/04 00:39:48;;;;;;;3.45;2.95;;;;;;;19.00;62.52;100830.19;678212;29;46340;-62
2021/08/04 00:40:10;;;;;;;3.13;2.70;;;;;;;18.98;62.55;100835.91;678114;29;45261;-61
2021/08/04 00:40:32;;;;;;;3.10;2.90;;;;;;;19.00;62.45;100830.19;676005;29;46454;-62
2021/08/04 00:40:55;;;;;;;3.22;2.90;;;;;;;18.99;62.60;100832.06;679024;29;19880;-61
2021/08/04 00:41:17;;;;;;;3.80;3.03;;;;;;;19.00;62.60;100825.53;677528;29;67589;-61
2021/08/04 00:41:39;;;;;;;3.03;2.83;;;;;;;19.01;62.38;100829.09;678048;29;69415;-62
2021/08/04 00:42:00;;;;;;;3.00;2.80;;;;;;;19.03;62.20;100827.00;677436;29;45262;-62
2021/08/04 00:42:21;;;;;;;2.90;2.70;;;;;;;19.02;62.23;100828.88;677581;29;23455;-62
2021/08/04 00:42:42;;;;;;;3.00;2.70;;;;;;;19.03;62.47;100836.03;679142;29;6263;-61
2021/08/04 00:43:05;;;;;;;2.80;2.60;;;;;;;19.03;62.26;100830.56;676128;29;12824;-62
2021/08/04 00:43:26;;;;;;;3.00;2.80;;;;;;;19.04;62.24;100826.75;676168;29;45278;-60
2021/08/04 00:43:47;;;;;;;2.90;2.70;;;;;;;19.06;62.40;100840.22;676385;29;43744;-59
2021/08/04 00:44:09;;;;;;;2.70;2.50;;;;;;;19.05;62.26;100828.41;679092;29;23695;-61
2021/08/04 00:44:31;;;;;;;2.95;2.70;;;;;;;19.04;62.11;100832.22;677894;29;44396;-61
2021/08/04 00:44:54;;;;;;;3.08;2.88;;;;;;;19.05;62.06;100833.88;676423;29;46528;-62
2021/08/04 00:45:16;;;;;;;2.67;2.58;;;;;;;19.06;62.06;100832.84;677219;29;67277;-59
2021/08/04 00:45:37;;;;;;;2.70;2.50;;;;;;;19.06;62.04;100832.84;676580;29;23838;-61
2021/08/04 00:45:59;;;;;;;2.83;2.60;;;;;;;19.07;62.13;100831.78;676093;29;45236;-60
2021/08/04 00:46:21;;;;;;;2.70;2.50;;;;;;;19.06;62.07;100835.56;675918;29;44371;-61
2021/08/04 00:46:43;;;;;;;2.80;2.60;;;;;;;19.06;62.41;100834.75;675326;29;22430;-61
2021/08/04 00:47:05;;;;;;;2.88;2.67;;;;;;;19.02;62.11;100830.78;676818;29;69498;-63
2021/08/04 00:47:26;;;;;;;3.03;2.85;;;;;;;19.05;62.34;100836.63;677390;29;46353;-61
2021/08/04 00:47:48;;;;;;;3.10;2.90;;;;;;;19.03;62.26;100835.22;675341;29;46380;-61
2021/08/04 00:48:10;;;;;;;3.10;2.85;;;;;;;19.03;62.34;100830.56;676298;29;46294;-62
2021/08/04 00:48:31;;;;;;;2.80;2.60;;;;;;;19.03;62.25;100836.03;680197;29;2172;-62
2021/08/04 00:48:52;;;;;;;3.00;2.70;;;;;;;19.02;62.32;100839.00;679103;29;1001;-61
2021/08/04 00:49:14;;;;;;;2.83;2.60;;;;;;;19.02;62.29;100841.72;678003;29;1009;-62
2021/08/04 00:49:38;;;;;;;2.97;2.78;;;;;;;19.01;62.31;100840.91;677334;29;45265;-63
2021/08/04 00:50:00;;;;;;;3.53;2.70;;;;;;;19.00;62.21;100832.94;673725;29;100354;-62
2021/08/04 00:50:22;;;;;;;3.97;2.72;;;;;;;18.99;62.40;100837.53;677913;29;1174;-64
2021/08/04 00:50:43;;;;;;;2.97;2.65;;;;;;;18.98;62.34;100835.03;678708;29;15008;-63
2021/08/04 00:51:04;;;;;;;2.63;2.50;;;;;;;18.98;62.27;100837.78;680871;29;13436;-61
2021/08/04 00:51:26;;;;;;;2.80;2.60;;;;;;;18.98;62.42;100840.50;682772;28;9745;-61
2021/08/04 00:51:47;;;;;;;2.72;2.53;;;;;;;18.97;62.52;100838.88;680769;28;45343;-61
2021/08/04 00:52:09;;;;;;;2.70;2.58;;;;;;;18.97;62.64;100841.59;685118;28;1318;-62
2021/08/04 00:52:30;;;;;;;2.83;2.63;;;;;;;18.97;62.36;100834.22;684568;28;14090;-58
2021/08/04 00:52:51;;;;;;;2.63;2.42;;;;;;;18.97;62.50;100836.94;683978;28;22493;-61
2021/08/04 00:53:20;;;;;;;2.30;2.20;;;;;;;19.00;62.44;100835.66;684013;28;22390;-60
2021/08/04 00:53:41;;;;;;;2.80;2.53;;;;;;;18.99;62.23;100834.81;681584;28;101806;-62
2021/08/04 00:54:04;;;;;;;3.40;2.78;;;;;;;19.01;62.37;100834.56;684184;28;22499;-62
2021/08/04 00:54:25;;;;;;;2.92;2.72;;;;;;;19.02;62.14;100830.78;683388;28;38147;-64
2021/08/04 00:54:46;;;;;;;2.80;2.60;;;;;;;18.98;62.10;100824.09;682372;28;10964;-64
2021/08/04 00:55:12;;;;;;;2.92;2.72;;;;;;;19.02;62.11;100834.34;680981;29;37808;-64
2021/08/04 00:55:33;;;;;;;3.40;3.10;;;;;;;19.03;62.09;100836.03;680935;29;47451;-61
2021/08/04 00:55:58;;;;;;;2.78;2.58;;;;;;;19.05;61.92;100838.53;682547;28;21511;-62
2021/08/04 00:56:19;;;;;;;2.88;2.67;;;;;;;19.05;61.86;100830.31;677853;28;138348;-61
2021/08/04 00:56:41;;;;;;;2.60;2.40;;;;;;;19.07;61.71;100834.50;681597;29;23496;-61
2021/08/04 00:57:04;;;;;;;2.70;2.50;;;;;;;19.08;61.67;100833.41;683651;28;15022;-63
2021/08/04 00:57:25;;;;;;;2.40;2.30;;;;;;;19.09;61.67;100837.03;684223;28;23547;-63
2021/08/04 00:57:46;;;;;;;2.63;2.53;;;;;;;19.09;61.56;100835.09;684284;28;22407;-62
2021/08/04 00:58:08;;;;;;;2.60;2.50;;;;;;;19.12;61.44;100838.44;682435;28;21557;-62
2021/08/04 00:58:31;;;;;;;2.60;2.40;;;;;;;19.13;61.35;100835.47;684247;28;21929;-63
2021/08/04 00:58:53;;;;;;;2.75;2.55;;;;;;;19.13;61.19;100834.66;682335;28;90675;-64
2021/08/04 00:59:14;;;;;;;2.70;2.50;;;;;;;19.14;61.00;100831.69;682219;29;3908;-64
2021/08/04 00:59:37;;;;;;;2.60;2.40;;;;;;;19.14;61.07;100833.56;679149;29;17875;-64
2021/08/04 00:59:58;;;;;;;2.70;2.60;;;;;;;19.16;60.80;100834.19;674590;29;68862;-61
2021/08/04 01:00:19;;;;;;;2.63;2.53;;;;;;;19.17;60.92;100835.84;676756;29;23564;-61
2021/08/04 01:00:42;;;;;;;3.50;2.50;;;;;;;19.17;61.10;100835.84;673696;29;23243;-61
2021/08/04 01:01:08;;;;;;;3.35;2.60;;;;;;;19.17;60.81;100836.69;673782;29;41567;-62
2021/08/04 01:01:34;;;;;;;2.60;2.50;;;;;;;19.17;60.74;100838.56;673520;29;134325;-61
2021/08/04 01:01:57;;;;;;;2.70;2.50;;;;;;;19.18;60.59;100838.34;677136;29;115777;-61
2021/08/04 01:02:21;;;;;;;2.60;2.40;;;;;;;19.17;60.82;100836.69;679790;29;69462;-62
2021/08/04 01:02:47;;;;;;;2.60;2.40;;;;;;;19.16;60.75;100834.19;680831;28;87894;-60
2021/08/04 01:03:09;;;;;;;2.80;2.50;;;;;;;19.16;61.00;100835.00;682388;28;115183;-62
2021/08/04 01:03:36;;;;;;;2.80;2.60;;;;;;;19.15;60.80;100837.97;684161;28;46284;-62
2021/08/04 01:04:01;;;;;;;2.60;2.40;;;;;;;19.16;60.93;100834.19;680232;28;134015;-61
2021/08/04 01:04:25;;;;;;;2.83;2.50;;;;;;;19.14;60.65;100837.16;678775;28;115206;-61
2021/08/04 01:04:49;;;;;;;2.85;2.45;;;;;;;19.14;60.94;100834.41;676579;29;90753;-61
2021/08/04 01:05:15;;;;;;;2.60;2.40;;;;;;;19.13;60.81;100832.72;673955;29;93017;-62
2021/08/04 01:05:42;;;;;;;2.70;2.50;;;;;;;19.12;60.90;100836.53;669594;29;138317;-62
2021/08/04 01:06:06;;;;;;;2.53;2.42;;;;;;;19.08;61.02;100833.41;675442;29;137276;-62
2021/08/04 01:06:34;;;;;;;2.38;2.28;;;;;;;19.08;61.06;100840.81;676942;29;92404;-61
2021/08/04 01:07:01;;;;;;;2.40;2.20;;;;;;;19.06;61.15;100835.56;676602;29;158069;-60
2021/08/04 01:07:28;;;;;;;3.08;2.70;;;;;;;19.05;61.17;100835.78;677815;28;137969;-60
2021/08/04 01:07:55;;;;;;;3.92;2.40;;;;;;;19.05;61.13;100831.16;680148;28;138013;-60
2021/08/04 01:08:22;;;;;;;2.88;2.53;;;;;;;19.06;61.15;100840.22;682757;28;61560;-61
2021/08/04 01:08:49;;;;;;;3.40;2.40;;;;;;;19.05;61.07;100838.53;681434;28;133133;-62
2021/08/04 01:09:13;;;;;;;2.55;2.35;;;;;;;19.03;61.28;100830.56;682101;28;58662;-61
2021/08/04 01:09:38;;;;;;;2.50;2.30;;;;;;;19.03;61.09;100835.22;680976;28;69583;-61
2021/08/04 01:10:05;;;;;;;2.28;2.17;;;;;;;19.04;61.30;100831.38;678481;29;60320;-62
2021/08/04 01:10:29;;;;;;;2.42;2.22;;;;;;;19.05;61.06;100833.06;676269;29;138224;-61
2021/08/04 01:10:53;;;;;;;2.70;2.50;;;;;;;19.05;61.18;100838.53;678966;28;92380;-60
2021/08/04 01:11:17;;;;;;;2.40;2.30;;;;;;;19.05;61.00;100839.38;679973;28;92295;-62
2021/08/04 01:11:40;;;;;;;2.20;2.10;;;;;;;19.05;61.13;100833.88;680467;28;69890;-61
2021/08/04 01:12:04;;;;;;;2.60;2.40;;;;;;;19.07;60.81;100833.66;682717;28;15103;-61
2021/08/04 01:12:30;;;;;;;2.40;2.20;;;;;;;19.04;60.98;100829.50;679045;29;64364;-61
2021/08/04 01:12:58;;;;;;;2.45;2.20;;;;;;;19.04;61.09;100831.38;676861;28;129130;-61
2021/08/04 01:13:25;;;;;;;2.75;2.35;;;;;;;19.04;61.00;100834.97;675154;29;97110;-62
2021/08/04 01:13:48;;;;;;;2.28;2.17;;;;;;;19.05;60.93;100833.88;672169;29;138933;-61
2021/08/04 01:14:13;;;;;;;2.30;2.20;;;;;;;19.05;60.83;100838.53;679757;29;58318;-61
2021/08/04 01:14:37;;;;;;;2.33;2.20;;;;;;;19.05;60.83;100831.16;681097;28;61551;-62
2021/08/04 01:15:01;;;;;;;2.50;2.30;;;;;;;19.07;60.74;100833.66;683257;28;15099;-60
2021/08/04 01:15:24;;;;;;;2.20;2.10;;;;;;;19.06;60.88;100834.75;678477;28;75685;-61
2021/08/04 01:15:47;;;;;;;2.42;2.33;;;;;;;19.07;60.68;100831.78;680490;28;44757;-58
2021/08/04 01:16:11;;;;;;;2.30;2.20;;;;;;;19.06;60.81;100835.56;680537;28;65654;-59
2021/08/04 01:16:36;;;;;;;2.35;2.25;;;;;;;19.06;60.65;100838.31;676794;29;87992;-61
2021/08/04 01:16:58;;;;;;;2.40;2.20;;;;;;;19.07;60.83;100830.91;675535;29;115378;-59
2021/08/04 01:17:19;;;;;;;2.50;2.30;;;;;;;19.06;60.74;100840.22;679518;29;44391;-63
2021/08/04 01:17:45;;;;;;;2.50;2.30;;;;;;;19.06;60.70;100832.84;681069;29;22383;-63
2021/08/04 01:18:07;;;;;;;2.50;2.30;;;;;;;19.07;60.74;100842.72;679459;28;138796;-63
2021/08/04 01:18:35;;;;;;;2.53;2.42;;;;;;;19.07;60.59;100839.13;683205;28;46812;-62
2021/08/04 01:19:01;;;;;;;2.30;2.20;;;;;;;19.07;60.55;100837.25;680465;28;138024;-63
2021/08/04 01:19:30;;;;;;;2.42;2.22;;;;;;;19.07;60.63;100836.41;680191;28;134231;-63
2021/08/04 01:20:04;;;;;;;2.60;2.40;;;;;;;19.06;60.78;100840.22;681710;28;138843;-60
2021/08/04 01:20:27;;;;;;;2.30;2.20;;;;;;;19.06;60.69;100841.03;677554;28;160418;-61
2021/08/04 01:20:51;;;;;;;2.38;2.28;;;;;;;19.07;60.51;100837.25;679122;28;93379;-60
2021/08/04 01:21:12;;;;;;;2.53;2.33;;;;;;;19.06;60.66;100840.22;680508;29;45342;-61
2021/08/04 01:21:41;;;;;;;2.63;2.42;;;;;;;19.06;60.56;100834.75;680330;29;61724;-58
2021/08/04 01:22:12;;;;;;;2.30;2.10;;;;;;;19.05;60.67;100839.38;680621;28;39050;-59
2021/08/04 01:22:41;;;;;;;2.10;2.00;;;;;;;19.05;60.85;100838.53;679468;28;137737;-61
2021/08/04 01:23:12;;;;;;;2.40;2.20;;;;;;;19.03;60.93;100836.03;680154;28;124817;-59
2021/08/04 01:23:39;;;;;;;2.60;2.40;;;;;;;19.02;60.98;100844.47;682877;28;136113;-60
2021/08/04 01:24:06;;;;;;;2.47;2.08;;;;;;;19.00;61.02;100843.88;683202;28;139187;-59
2021/08/04 01:24:31;;;;;;;2.38;2.17;;;;;;;18.98;61.26;100844.09;682069;28;160852;-61
2021/08/04 01:24:58;;;;;;;2.60;2.40;;;;;;;18.99;61.15;100839.47;685400;28;60954;-61
2021/08/04 01:25:23;;;;;;;2.40;2.20;;;;;;;18.99;61.15;100842.19;684954;28;62901;-61
2021/08/04 01:25:51;;;;;;;2.28;2.17;;;;;;;18.97;61.38;100847.06;681703;28;93054;-59
2021/08/04 01:26:26;;;;;;;3.03;2.30;;;;;;;18.97;61.39;100838.88;678872;28;161111;-60
2021/08/04 01:26:48;;;;;;;2.22;2.13;;;;;;;18.97;61.43;100838.88;678098;29;121538;-62
2021/08/04 01:27:11;;;;;;;2.45;2.25;;;;;;;18.95;61.53;100843.72;682708;28;13313;-60
2021/08/04 01:27:34;;;;;;;2.20;2.10;;;;;;;18.96;61.35;100839.91;679354;28;90138;-62
2021/08/04 01:28:16;;;;;;;2.00;1.90;;;;;;;18.95;61.37;100846.44;682082;29;1546;-62
2021/08/04 01:28:38;;;;;;;2.70;2.50;;;;;;;18.92;61.43;100831.34;678368;28;138539;-62
2021/08/04 01:29:09;;;;;;;2.42;2.22;;;;;;;18.95;61.45;100844.56;682858;28;61434;-61
2021/08/04 01:29:30;;;;;;;2.75;2.55;;;;;;;18.96;61.36;100840.75;681471;28;115088;-62
2021/08/04 01:29:52;;;;;;;3.50;2.35;;;;;;;18.97;61.28;100847.91;685282;28;18976;-62
2021/08/04 01:30:13;;;;;;;2.40;2.20;;;;;;;18.96;61.24;100842.66;685728;28;37484;-61
2021/08/04 01:30:35;;;;;;;2.50;2.30;;;;;;;18.95;61.22;100846.44;685802;28;22497;-62
2021/08/04 01:31:02;;;;;;;2.45;2.35;;;;;;;18.94;61.07;100844.78;684129;28;40771;-62
2021/08/04 01:31:25;;;;;;;2.35;2.15;;;;;;;18.96;61.10;100848.94;679428;28;137866;-61
2021/08/04 01:31:49;;;;;;;3.00;2.40;;;;;;;18.96;61.00;100840.75;680426;28;67473;-60
2021/08/04 01:32:12;;;;;;;4.10;2.45;;;;;;;18.97;61.25;100847.06;679392;28;38832;-61
2021/08/04 01:32:33;;;;;;;2.30;2.20;;;;;;;18.95;60.92;100838.22;679923;29;23543;-62
2021/08/04 01:32:55;;;;;;;2.40;2.20;;;;;;;18.97;61.08;100847.91;679533;29;46331;-62
2021/08/04 01:33:16;;;;;;;2.42;2.25;;;;;;;18.96;61.28;100843.47;681734;28;22398;-60
2021/08/04 01:33:40;;;;;;;2.22;2.13;;;;;;;18.95;61.23;100846.44;683000;28;31956;-61
2021/08/04 01:34:03;;;;;;;2.38;2.28;;;;;;;18.95;61.15;100839.09;683106;28;42381;-62
2021/08/04 01:34:25;;;;;;;2.40;2.30;;;;;;;18.97;61.15;100845.16;684381;28;984;-62
2021/08/04 01:34:47;;;;;;;2.50;2.30;;;;;;;18.98;61.03;100843.25;683354;28;43088;-61
2021/08/04 01:35:10;;;;;;;2.53;2.30;;;;;;;18.99;61.24;100847.66;684343;28;23425;-62
2021/08/04 01:35:31;;;;;;;2.60;2.40;;;;;;;18.99;61.06;100845.75;681647;28;92445;-61
2021/08/04 01:35:53;;;;;;;2.67;2.47;;;;;;;19.01;60.96;100843.66;686953;28;9351;-61
2021/08/04 01:36:14;;;;;;;2.60;2.40;;;;;;;19.01;61.05;100843.66;687084;28;21251;-62
2021/08/04 01:36:35;;;;;;;2.47;2.28;;;;;;;19.01;61.05;100842.78;683726;28;36421;-61
2021/08/04 01:36:57;;;;;;;2.78;2.58;;;;;;;19.01;61.01;100851.00;681098;29;37927;-62
2021/08/04 01:37:21;;;;;;;2.53;2.42;;;;;;;19.00;61.11;100841.97;681377;29;17536;-62
2021/08/04 01:37:43;;;;;;;2.33;2.22;;;;;;;19.00;61.21;100843.88;680214;29;53278;-62
2021/08/04 01:38:04;;;;;;;2.40;2.30;;;;;;;18.99;61.17;100837.53;677986;29;40855;-59
2021/08/04 01:38:25;;;;;;;2.70;2.50;;;;;;;18.99;61.06;100836.72;679336;29;23547;-61
2021/08/04 01:38:47;;;;;;;2.40;2.30;;;;;;;18.99;61.29;100847.66;681999;28;21509;-61
2021/08/04 01:39:09;;;;;;;2.58;2.47;;;;;;;18.98;61.36;100840.50;683002;28;45346;-62
2021/08/04 01:39:32;;;;;;;2.53;2.42;;;;;;;18.97;61.36;100841.59;682663;28;69797;-59
2021/08/04 01:39:55;;;;;;;2.33;2.23;;;;;;;18.96;61.42;100845.38;685410;28;15143;-61
2021/08/04 01:40:16;;;;;;;2.50;2.30;;;;;;;18.95;61.45;100846.44;682825;28;44366;-62
2021/08/04 01:40:38;;;;;;;2.55;2.35;;;;;;;18.93;61.45;100845.84;682068;29;1262;-61
2021/08/04 01:41:01;;;;;;;2.40;2.22;;;;;;;18.93;61.64;100843.13;678545;29;4315;-61
2021/08/04 01:41:24;;;;;;;2.53;2.33;;;;;;;18.92;61.66;100842.28;674488;29;69496;-61
2021/08/04 01:41:46;;;;;;;2.72;2.53;;;;;;;18.92;61.61;100847.75;674313;29;66438;-62
2021/08/04 01:42:08;;;;;;;2.60;2.50;;;;;;;18.93;61.73;100841.19;676308;29;46364;-61
2021/08/04 01:42:32;;;;;;;3.10;2.42;;;;;;;18.93;61.68;100843.13;678951;29;44375;-61
2021/08/04 01:42:54;;;;;;;2.33;2.20;;;;;;;18.92;61.87;100850.50;680293;28;92320;-62
2021/08/04 01:43:17;;;;;;;2.40;2.30;;;;;;;18.93;61.85;100845.84;685794;28;1984;-61
2021/08/04 01:43:39;;;;;;;2.40;2.30;;;;;;;18.93;61.82;100841.19;684735;28;46484;-61
2021/08/04 01:44:00;;;;;;;2.63;2.53;;;;;;;18.93;61.83;100849.41;682930;28;40799;-60
2021/08/04 01:44:23;;;;;;;2.60;2.50;;;;;;;18.92;61.80;100842.28;684404;28;21482;-62
2021/08/04 01:44:45;;;;;;;2.70;2.33;;;;;;;18.94;61.66;100845.63;684117;28;69518;-61
2021/08/04 01:45:07;;;;;;;2.40;2.30;;;;;;;18.93;61.72;100841.19;685338;28;45186;-62
2021/08/04 01:45:28;;;;;;;2.67;2.58;;;;;;;18.95;61.79;100843.72;684961;28;46283;-61
2021/08/04 01:45:53;;;;;;;2.47;2.38;;;;;;;18.96;61.69;100837.19;684294;28;23705;-60
2021/08/04 01:46:14;;;;;;;2.70;2.50;;;;;;;18.95;61.84;100838.22;682741;28;100351;-61
2021/08/04 01:46:36;;;;;;;3.10;2.70;;;;;;;18.93;61.88;100840.38;685608;28;42909;-61
2021/08/04 01:46:59;;;;;;;2.80;2.50;;;;;;;18.90;61.91;100837.03;684023;28;13051;-61
2021/08/04 01:47:22;;;;;;;2.38;2.28;;;;;;;18.91;62.12;100840.59;684686;28;947;-61
2021/08/04 01:47:44;;;;;;;2.40;2.25;;;;;;;18.89;61.91;100834.53;681463;29;1530;-61
2021/08/04 01:48:06;;;;;;;2.80;2.60;;;;;;;18.87;62.16;100840.25;680700;29;22505;-62